createdAt,value
2022-11-29T00:00:03.021Z,0.00
2022-11-29T00:00:59.201Z,0.00
2022-11-29T00:01:59.702Z,0.00
2022-11-29T00:02:59.908Z,0.00
2022-11-29T00:04:00.119Z,0.00
2022-11-29T00:05:00.460Z,0.00
2022-11-29T00:06:00.771Z,0.00
2022-11-29T00:07:01.092Z,0.00
2022-11-29T00:08:01.419Z,0.00
2022-11-29T00:09:01.710Z,0.00
2022-11-29T00:10:02.075Z,0.00
2022-11-29T00:11:02.322Z,0.00
2022-11-29T00:12:02.821Z,0.00
2022-11-29T00:13:02.898Z,0.00
2022-11-29T00:14:03.279Z,0.00
2022-11-29T00:15:03.441Z,0.00
2022-11-29T00:16:03.834Z,0.00
2022-11-29T00:17:04.203Z,0.00
2022-11-29T00:18:04.391Z,0.00
2022-11-29T00:19:04.713Z,0.00
2022-11-29T00:20:05.028Z,0.00
2022-11-29T00:21:05.234Z,0.00
2022-11-29T00:22:05.580Z,0.00
2022-11-29T00:23:05.902Z,0.00
2022-11-29T00:24:06.192Z,0.00
2022-11-29T00:25:06.509Z,0.00
2022-11-29T00:26:06.782Z,0.00
2022-11-29T00:27:07.110Z,0.00
2022-11-29T00:28:07.385Z,0.00
2022-11-29T00:29:07.733Z,0.00
2022-11-29T00:30:08.051Z,0.00
2022-11-29T00:31:08.326Z,0.00
2022-11-29T00:32:08.622Z,0.00
2022-11-29T00:33:08.928Z,0.00
2022-11-29T00:34:09.279Z,0.00
2022-11-29T00:35:09.948Z,0.00
2022-11-29T00:36:09.783Z,0.00
2022-11-29T00:37:10.142Z,0.00
2022-11-29T00:38:10.333Z,0.00
2022-11-29T00:39:10.651Z,0.00
2022-11-29T00:40:10.990Z,0.00
2022-11-29T00:41:11.299Z,0.00
2022-11-29T00:42:11.654Z,0.00
2022-11-29T00:43:11.911Z,0.00
2022-11-29T00:44:18.372Z,0.00
2022-11-29T00:45:13.599Z,0.00
2022-11-29T00:46:13.005Z,0.00
2022-11-29T00:47:13.249Z,0.00
2022-11-29T00:48:13.555Z,0.00
2022-11-29T00:49:13.895Z,0.00
2022-11-29T00:50:14.205Z,0.00
2022-11-29T00:51:14.520Z,0.00
2022-11-29T00:52:14.884Z,0.00
2022-11-29T00:53:16.039Z,0.00
2022-11-29T00:54:15.365Z,0.00
2022-11-29T00:55:15.708Z,0.00
2022-11-29T00:56:16.069Z,0.00
2022-11-29T00:57:16.449Z,0.00
2022-11-29T00:58:16.662Z,0.00
2022-11-29T00:59:16.913Z,0.00
2022-11-29T01:00:17.288Z,0.00
2022-11-29T01:01:17.896Z,0.00
2022-11-29T01:02:18.000Z,0.00
2022-11-29T01:03:18.211Z,0.00
2022-11-29T01:04:18.558Z,0.00
2022-11-29T01:05:18.754Z,0.00
2022-11-29T01:06:19.086Z,0.00
2022-11-29T01:07:19.458Z,0.00
2022-11-29T01:08:19.690Z,0.00
2022-11-29T01:09:20.022Z,0.00
2022-11-29T01:10:21.223Z,0.00
2022-11-29T01:11:20.696Z,0.00
2022-11-29T01:12:20.896Z,0.00
2022-11-29T01:13:21.199Z,0.00
2022-11-29T01:14:21.533Z,0.00
2022-11-29T01:15:21.828Z,0.00
2022-11-29T01:16:22.260Z,0.00
2022-11-29T01:17:22.464Z,0.00
2022-11-29T01:18:22.777Z,0.00
2022-11-29T01:19:23.115Z,0.00
2022-11-29T01:20:23.525Z,0.00
2022-11-29T01:21:23.728Z,0.00
2022-11-29T01:22:24.058Z,0.00
2022-11-29T01:23:24.347Z,0.00
2022-11-29T01:24:24.731Z,0.00
2022-11-29T01:25:24.953Z,0.00
2022-11-29T01:26:25.254Z,0.00
2022-11-29T01:27:25.610Z,0.00
2022-11-29T01:28:25.903Z,0.00
2022-11-29T01:29:26.090Z,0.00
2022-11-29T01:30:26.522Z,0.00
2022-11-29T01:31:26.736Z,0.00
2022-11-29T01:32:27.075Z,0.00
2022-11-29T01:33:27.363Z,0.00
2022-11-29T01:34:27.764Z,0.00
2022-11-29T01:35:27.934Z,0.00
2022-11-29T01:36:28.275Z,0.00
2022-11-29T01:37:28.606Z,0.00
2022-11-29T01:38:28.938Z,0.00
2022-11-29T01:39:29.236Z,0.00
2022-11-29T01:40:29.561Z,0.00
2022-11-29T01:41:29.798Z,0.00
2022-11-29T01:42:30.132Z,0.00
2022-11-29T01:43:30.419Z,0.00
2022-11-29T01:44:30.771Z,0.00
2022-11-29T01:45:30.922Z,0.00
2022-11-29T01:46:31.339Z,0.00
2022-11-29T01:47:31.578Z,0.00
2022-11-29T01:48:31.898Z,0.00
2022-11-29T01:49:32.199Z,0.00
2022-11-29T01:50:32.533Z,0.00
2022-11-29T01:51:32.836Z,0.00
2022-11-29T01:52:33.254Z,0.00
2022-11-29T01:53:33.469Z,0.00
2022-11-29T01:54:33.820Z,0.00
2022-11-29T01:55:34.273Z,0.00
2022-11-29T01:56:34.448Z,0.00
2022-11-29T01:57:34.660Z,0.00
2022-11-29T01:58:35.184Z,0.00
2022-11-29T01:59:35.254Z,0.00
2022-11-29T02:00:35.551Z,0.00
2022-11-29T02:01:35.769Z,0.00
2022-11-29T02:02:36.123Z,0.00
2022-11-29T02:03:36.357Z,0.00
2022-11-29T02:04:36.718Z,0.00
2022-11-29T02:05:37.034Z,0.00
2022-11-29T02:06:37.360Z,0.00
2022-11-29T02:07:37.643Z,0.00
2022-11-29T02:08:38.039Z,0.00
2022-11-29T02:09:38.292Z,0.00
2022-11-29T02:10:38.631Z,0.00
2022-11-29T02:11:38.856Z,0.00
2022-11-29T02:12:39.093Z,0.00
2022-11-29T02:13:40.296Z,0.00
2022-11-29T02:14:39.667Z,0.00
2022-11-29T02:15:39.973Z,0.00
2022-11-29T02:16:40.254Z,0.00
2022-11-29T02:17:40.563Z,0.00
2022-11-29T02:18:40.890Z,0.00
2022-11-29T02:19:41.204Z,0.00
2022-11-29T02:20:41.518Z,0.00
2022-11-29T02:21:41.809Z,0.00
2022-11-29T02:22:42.133Z,0.00
2022-11-29T02:23:42.477Z,0.00
2022-11-29T02:24:43.069Z,0.00
2022-11-29T02:25:43.021Z,0.00
2022-11-29T02:26:43.341Z,0.00
2022-11-29T02:27:43.651Z,0.00
2022-11-29T02:28:43.985Z,0.00
2022-11-29T02:29:44.401Z,0.00
2022-11-29T02:30:44.631Z,0.00
2022-11-29T02:31:44.821Z,0.00
2022-11-29T02:32:45.192Z,0.00
2022-11-29T02:33:45.387Z,0.00
2022-11-29T02:34:46.049Z,0.00
2022-11-29T02:35:45.984Z,0.00
2022-11-29T02:36:46.312Z,0.00
2022-11-29T02:37:46.611Z,0.00
2022-11-29T02:38:47.005Z,0.00
2022-11-29T02:39:47.241Z,0.00
2022-11-29T02:40:47.557Z,0.00
2022-11-29T02:41:47.856Z,0.00
2022-11-29T02:42:52.571Z,0.00
2022-11-29T02:43:49.486Z,0.00
2022-11-29T02:44:48.815Z,0.00
2022-11-29T02:45:49.132Z,0.00
2022-11-29T02:46:49.428Z,0.00
2022-11-29T02:47:49.683Z,0.00
2022-11-29T02:48:49.867Z,0.00
2022-11-29T02:49:50.172Z,0.00
2022-11-29T02:50:50.551Z,0.00
2022-11-29T02:51:50.802Z,0.00
2022-11-29T02:52:50.989Z,0.00
2022-11-29T02:53:51.329Z,0.00
2022-11-29T02:54:51.643Z,0.00
2022-11-29T02:55:51.937Z,0.00
2022-11-29T02:56:52.285Z,0.00
2022-11-29T02:57:52.505Z,0.00
2022-11-29T02:58:52.830Z,0.00
2022-11-29T02:59:53.106Z,0.00
2022-11-29T03:00:53.478Z,0.00
2022-11-29T03:01:53.840Z,0.00
2022-11-29T03:02:54.216Z,0.00
2022-11-29T03:03:54.405Z,0.00
2022-11-29T03:04:54.721Z,0.00
2022-11-29T03:05:55.056Z,0.00
2022-11-29T03:06:55.415Z,0.00
2022-11-29T03:07:55.847Z,0.00
2022-11-29T03:08:56.095Z,0.00
2022-11-29T03:09:56.421Z,0.00
2022-11-29T03:10:56.737Z,0.00
2022-11-29T03:11:57.056Z,0.00
2022-11-29T03:12:57.385Z,0.00
2022-11-29T03:13:57.684Z,0.00
2022-11-29T03:14:58.032Z,0.00
2022-11-29T03:15:58.348Z,0.00
2022-11-29T03:16:58.693Z,0.00
2022-11-29T03:17:59.009Z,0.00
2022-11-29T03:18:59.316Z,0.00
2022-11-29T03:19:59.652Z,0.00
2022-11-29T03:20:59.981Z,0.00
2022-11-29T03:22:00.317Z,0.00
2022-11-29T03:23:00.616Z,0.00
2022-11-29T03:24:00.949Z,0.00
2022-11-29T03:25:01.260Z,0.00
2022-11-29T03:26:01.653Z,0.00
2022-11-29T03:27:01.833Z,0.00
2022-11-29T03:28:02.038Z,0.00
2022-11-29T03:29:02.325Z,0.00
2022-11-29T03:30:02.522Z,0.00
2022-11-29T03:31:02.874Z,0.00
2022-11-29T03:32:03.166Z,0.00
2022-11-29T03:33:03.502Z,0.00
2022-11-29T03:34:03.800Z,0.00
2022-11-29T03:35:04.156Z,0.00
2022-11-29T03:36:04.463Z,0.00
2022-11-29T03:37:04.785Z,0.00
2022-11-29T03:38:05.162Z,0.00
2022-11-29T03:39:05.378Z,0.00
2022-11-29T03:40:05.695Z,0.00
2022-11-29T03:41:05.882Z,0.00
2022-11-29T03:42:06.224Z,0.00
2022-11-29T03:43:06.547Z,0.00
2022-11-29T03:44:06.852Z,0.00
2022-11-29T03:45:07.225Z,0.00
2022-11-29T03:46:07.472Z,0.00
2022-11-29T03:47:07.787Z,0.00
2022-11-29T03:48:08.083Z,0.00
2022-11-29T03:49:08.463Z,0.00
2022-11-29T03:50:08.747Z,0.00
2022-11-29T03:51:09.103Z,0.00
2022-11-29T03:52:09.433Z,0.00
2022-11-29T03:53:09.726Z,0.00
2022-11-29T03:54:09.899Z,0.00
2022-11-29T03:55:10.258Z,0.00
2022-11-29T03:56:10.651Z,0.00
2022-11-29T03:57:10.845Z,0.00
2022-11-29T03:58:11.129Z,0.00
2022-11-29T03:59:11.490Z,0.00
2022-11-29T04:00:11.763Z,0.00
2022-11-29T04:01:12.148Z,0.00
2022-11-29T04:02:12.342Z,0.00
2022-11-29T04:03:12.651Z,0.00
2022-11-29T04:04:12.978Z,0.00
2022-11-29T04:05:13.280Z,0.00
2022-11-29T04:06:13.633Z,0.00
2022-11-29T04:07:14.009Z,0.00
2022-11-29T04:08:14.194Z,0.00
2022-11-29T04:09:14.536Z,0.00
2022-11-29T04:10:14.829Z,0.00
2022-11-29T04:11:15.214Z,0.00
2022-11-29T04:12:15.411Z,0.00
2022-11-29T04:13:15.734Z,0.00
2022-11-29T04:14:15.966Z,0.00
2022-11-29T04:15:16.293Z,0.00
2022-11-29T04:16:16.491Z,0.00
2022-11-29T04:17:16.843Z,0.00
2022-11-29T04:18:17.038Z,0.00
2022-11-29T04:19:17.344Z,0.00
2022-11-29T04:20:17.645Z,0.00
2022-11-29T04:21:18.017Z,0.00
2022-11-29T04:22:18.208Z,0.00
2022-11-29T04:23:18.543Z,0.00
2022-11-29T04:24:18.891Z,0.00
2022-11-29T04:25:19.091Z,0.00
2022-11-29T04:26:19.388Z,0.00
2022-11-29T04:27:21.229Z,0.00
2022-11-29T04:28:20.030Z,0.00
2022-11-29T04:29:20.330Z,0.00
2022-11-29T04:30:22.499Z,0.00
2022-11-29T04:31:20.930Z,0.00
2022-11-29T04:32:21.273Z,0.00
2022-11-29T04:33:21.534Z,0.00
2022-11-29T04:34:21.863Z,0.00
2022-11-29T04:35:23.046Z,0.00
2022-11-29T04:36:22.376Z,0.00
2022-11-29T04:37:22.730Z,0.00
2022-11-29T04:38:23.008Z,0.00
2022-11-29T04:39:23.416Z,0.00
2022-11-29T04:40:23.726Z,0.00
2022-11-29T04:41:23.978Z,0.00
2022-11-29T04:42:24.220Z,0.00
2022-11-29T04:43:24.589Z,0.00
2022-11-29T04:44:24.856Z,0.00
2022-11-29T04:45:25.984Z,0.00
2022-11-29T04:46:25.429Z,0.00
2022-11-29T04:47:25.675Z,0.00
2022-11-29T04:48:26.027Z,0.00
2022-11-29T04:49:26.318Z,0.00
2022-11-29T04:50:26.613Z,0.00
2022-11-29T04:51:26.931Z,0.00
2022-11-29T04:52:27.231Z,0.00
2022-11-29T04:53:27.554Z,0.00
2022-11-29T04:54:27.833Z,0.00
2022-11-29T04:55:31.046Z,0.00
2022-11-29T04:56:28.421Z,0.00
2022-11-29T04:57:28.755Z,0.00
2022-11-29T04:58:29.100Z,0.00
2022-11-29T04:59:29.436Z,0.00
2022-11-29T05:00:29.734Z,0.00
2022-11-29T05:01:30.041Z,0.00
2022-11-29T05:02:30.312Z,0.00
2022-11-29T05:03:30.606Z,0.00
2022-11-29T05:04:30.954Z,0.00
2022-11-29T05:05:31.326Z,0.00
2022-11-29T05:06:31.610Z,0.00
2022-11-29T05:07:31.968Z,0.00
2022-11-29T05:08:33.037Z,0.00
2022-11-29T05:09:32.474Z,0.00
2022-11-29T05:10:32.809Z,0.00
2022-11-29T05:11:33.181Z,0.00
2022-11-29T05:12:34.283Z,0.00
2022-11-29T05:13:33.658Z,0.00
2022-11-29T05:14:34.826Z,0.00
2022-11-29T05:15:34.260Z,0.00
2022-11-29T05:16:34.392Z,0.00
2022-11-29T05:17:35.573Z,0.00
2022-11-29T05:18:35.947Z,0.00
2022-11-29T05:19:36.437Z,0.00
2022-11-29T05:20:35.662Z,0.00
2022-11-29T05:21:35.989Z,0.00
2022-11-29T05:22:36.179Z,0.00
2022-11-29T05:23:37.342Z,0.00
2022-11-29T05:24:38.108Z,0.00
2022-11-29T05:25:37.060Z,0.00
2022-11-29T05:26:38.227Z,0.00
2022-11-29T05:27:38.119Z,0.00
2022-11-29T05:28:37.912Z,0.00
2022-11-29T05:29:38.262Z,0.00
2022-11-29T05:30:39.546Z,0.00
2022-11-29T05:31:38.957Z,0.00
2022-11-29T05:32:40.009Z,0.00
2022-11-29T05:33:39.495Z,0.00
2022-11-29T05:34:39.805Z,0.00
2022-11-29T05:35:40.964Z,0.00
2022-11-29T05:36:40.665Z,0.00
2022-11-29T05:37:40.698Z,0.00
2022-11-29T05:38:42.385Z,0.00
2022-11-29T05:39:42.142Z,0.00
2022-11-29T05:40:42.443Z,0.00
2022-11-29T05:41:42.792Z,0.00
2022-11-29T05:42:44.120Z,0.00
2022-11-29T05:43:42.543Z,0.00
2022-11-29T05:44:43.334Z,0.00
2022-11-29T05:45:44.029Z,0.00
2022-11-29T05:46:43.424Z,0.00
2022-11-29T05:47:47.878Z,0.00
2022-11-29T05:48:45.318Z,0.00
2022-11-29T05:49:44.368Z,0.00
2022-11-29T05:50:44.463Z,0.00
2022-11-29T05:51:44.783Z,0.00
2022-11-29T05:52:44.967Z,0.00
2022-11-29T05:53:46.392Z,0.00
2022-11-29T05:54:48.091Z,0.00
2022-11-29T05:55:47.727Z,0.00
2022-11-29T05:56:49.533Z,0.00
2022-11-29T05:57:46.390Z,0.00
2022-11-29T05:58:47.585Z,0.00
2022-11-29T05:59:48.482Z,0.00
2022-11-29T06:00:49.536Z,0.00
2022-11-29T06:01:49.576Z,0.00
2022-11-29T06:02:49.651Z,0.00
2022-11-29T06:03:50.767Z,0.00
2022-11-29T06:04:48.563Z,0.00
2022-11-29T06:05:50.708Z,0.00
2022-11-29T06:06:51.974Z,0.00
2022-11-29T06:07:51.557Z,0.00
2022-11-29T06:08:52.290Z,0.00
2022-11-29T06:10:01.513Z,0.00
2022-11-29T06:10:54.415Z,0.00
2022-11-29T06:12:04.465Z,0.00
2022-11-29T06:13:04.488Z,0.00
2022-11-29T06:13:54.758Z,0.00
2022-11-29T06:15:19.108Z,0.00
2022-11-29T06:15:57.363Z,0.00
2022-11-29T07:38:53.307Z,5.62
2022-11-29T07:39:59.508Z,5.62
2022-11-29T07:40:51.860Z,5.62
2022-11-29T07:41:51.281Z,5.62
2022-11-29T07:42:53.429Z,5.62
2022-11-29T07:43:52.061Z,5.62
2022-11-29T07:44:52.158Z,5.62
2022-11-29T07:45:52.484Z,5.62
2022-11-29T07:46:52.961Z,5.62
2022-11-29T07:47:54.106Z,5.62
2022-11-29T07:48:54.245Z,5.62
2022-11-29T07:49:53.585Z,5.62
2022-11-29T07:50:53.899Z,5.62
2022-11-29T07:51:55.104Z,5.62
2022-11-29T07:52:55.301Z,5.62
2022-11-29T07:53:56.730Z,5.62
2022-11-29T07:54:55.852Z,5.62
2022-11-29T07:55:56.157Z,11.25
2022-11-29T07:56:56.508Z,11.25
2022-11-29T07:57:56.677Z,11.25
2022-11-29T07:58:56.167Z,5.62
2022-11-29T07:59:57.289Z,5.62
2022-11-29T08:00:57.698Z,5.62
2022-11-29T08:01:57.054Z,5.62
2022-11-29T08:02:58.180Z,5.62
2022-11-29T08:03:57.837Z,5.62
2022-11-29T08:04:58.924Z,5.62
2022-11-29T08:06:00.496Z,5.62
2022-11-29T08:06:59.828Z,5.62
2022-11-29T08:07:58.821Z,5.62
2022-11-29T08:08:59.178Z,5.62
2022-11-29T08:10:05.912Z,5.62
2022-11-29T08:11:02.980Z,5.62
2022-11-29T08:11:59.975Z,5.62
2022-11-29T08:13:01.126Z,5.62
2022-11-29T08:14:02.355Z,5.62
2022-11-29T08:15:03.065Z,5.62
2022-11-29T08:16:01.924Z,5.62
2022-11-29T08:17:02.697Z,5.62
2022-11-29T08:18:03.963Z,5.62
2022-11-29T08:19:03.477Z,5.62
2022-11-29T08:20:04.281Z,5.62
2022-11-29T08:21:02.574Z,5.62
2022-11-29T08:22:06.628Z,5.62
2022-11-29T08:23:04.941Z,11.25
2022-11-29T08:24:04.121Z,11.25
2022-11-29T08:25:07.463Z,11.25
2022-11-29T08:26:04.709Z,11.25
2022-11-29T08:27:04.123Z,11.25
2022-11-29T08:28:05.350Z,11.25
2022-11-29T08:29:06.525Z,11.25
2022-11-29T08:30:07.669Z,11.25
2022-11-29T08:31:05.222Z,11.25
2022-11-29T08:32:08.940Z,11.25
2022-11-29T08:33:06.586Z,11.25
2022-11-29T08:34:08.240Z,16.88
2022-11-29T08:35:08.395Z,16.88
2022-11-29T08:36:07.455Z,16.88
2022-11-29T08:37:08.754Z,16.88
2022-11-29T08:38:07.280Z,16.88
2022-11-29T08:39:09.577Z,16.88
2022-11-29T08:40:07.646Z,22.50
2022-11-29T08:41:07.979Z,22.50
2022-11-29T08:42:11.964Z,22.50
2022-11-29T08:43:09.407Z,22.50
2022-11-29T08:44:09.679Z,22.50
2022-11-29T08:45:09.138Z,22.50
2022-11-29T08:46:12.482Z,22.50
2022-11-29T08:47:10.650Z,22.50
2022-11-29T08:48:11.759Z,22.50
2022-11-29T08:49:13.102Z,22.50
2022-11-29T08:50:12.452Z,22.50
2022-11-29T08:51:12.098Z,22.50
2022-11-29T08:52:11.498Z,22.50
2022-11-29T08:53:12.342Z,22.50
2022-11-29T08:54:13.475Z,22.50
2022-11-29T08:55:13.791Z,22.50
2022-11-29T08:56:59.625Z,22.50
2022-11-29T08:57:39.395Z,22.50
2022-11-29T08:58:14.866Z,22.50
2022-11-29T08:59:14.991Z,22.50
2022-11-29T09:00:15.185Z,22.50
2022-11-29T09:01:15.817Z,22.50
2022-11-29T09:02:14.741Z,28.12
2022-11-29T09:03:15.266Z,28.12
2022-11-29T09:04:15.503Z,28.12
2022-11-29T09:05:14.808Z,28.12
2022-11-29T09:06:15.065Z,28.12
2022-11-29T09:07:15.470Z,28.12
2022-11-29T09:08:16.602Z,28.12
2022-11-29T09:09:15.975Z,22.50
2022-11-29T09:10:19.547Z,22.50
2022-11-29T09:11:18.397Z,22.50
2022-11-29T09:12:18.591Z,16.88
2022-11-29T09:13:18.080Z,16.88
2022-11-29T09:14:18.432Z,16.88
2022-11-29T09:15:18.583Z,16.88
2022-11-29T09:16:24.742Z,16.88
2022-11-29T09:17:20.572Z,16.88
2022-11-29T09:18:18.417Z,16.88
2022-11-29T09:19:19.555Z,16.88
2022-11-29T09:20:20.983Z,16.88
2022-11-29T09:21:21.840Z,16.88
2022-11-29T09:22:21.818Z,16.88
2022-11-29T09:23:20.771Z,16.88
2022-11-29T09:24:20.549Z,16.88
2022-11-29T09:25:22.548Z,16.88
2022-11-29T09:26:21.563Z,16.88
2022-11-29T09:27:21.704Z,16.88
2022-11-29T09:28:21.975Z,16.88
2022-11-29T09:29:23.263Z,16.88
2022-11-29T09:30:23.957Z,16.88
2022-11-29T09:31:22.849Z,16.88
2022-11-29T09:32:22.349Z,16.88
2022-11-29T09:33:23.365Z,16.88
2022-11-29T09:34:24.682Z,16.88
2022-11-29T09:35:24.914Z,16.88
2022-11-29T09:36:28.910Z,16.88
2022-11-29T09:37:25.039Z,16.88
2022-11-29T09:38:24.868Z,16.88
2022-11-29T09:39:24.277Z,16.88
2022-11-29T09:40:28.977Z,16.88
2022-11-29T09:41:25.292Z,16.88
2022-11-29T09:42:25.025Z,16.88
2022-11-29T09:43:26.246Z,16.88
2022-11-29T09:44:25.532Z,16.88
2022-11-29T09:45:25.883Z,16.88
2022-11-29T09:46:27.121Z,16.88
2022-11-29T09:47:27.671Z,16.88
2022-11-29T09:48:28.581Z,16.88
2022-11-29T09:49:27.920Z,16.88
2022-11-29T09:50:29.972Z,16.88
2022-11-29T09:51:27.475Z,16.88
2022-11-29T09:52:28.576Z,16.88
2022-11-29T09:53:28.870Z,16.88
2022-11-29T09:54:29.155Z,16.88
2022-11-29T09:55:29.405Z,16.88
2022-11-29T09:56:30.139Z,16.88
2022-11-29T09:57:30.961Z,16.88
2022-11-29T09:58:30.199Z,16.88
2022-11-29T09:59:31.106Z,16.88
2022-11-29T10:00:30.841Z,16.88
2022-11-29T10:01:30.255Z,16.88
2022-11-29T10:02:30.551Z,16.88
2022-11-29T10:03:32.669Z,16.88
2022-11-29T10:04:31.128Z,16.88
2022-11-29T10:05:34.183Z,16.88
2022-11-29T10:06:32.568Z,16.88
2022-11-29T10:07:33.549Z,16.88
2022-11-29T10:08:34.222Z,16.88
2022-11-29T10:09:34.100Z,16.88
2022-11-29T10:10:32.850Z,22.50
2022-11-29T10:11:34.081Z,22.50
2022-11-29T10:12:34.340Z,22.50
2022-11-29T10:13:33.644Z,22.50
2022-11-29T10:14:33.951Z,22.50
2022-11-29T10:18:49.585Z,28.12
2022-11-29T10:19:05.187Z,28.12
2022-11-29T10:20:05.478Z,28.12
2022-11-29T10:21:05.697Z,28.12
2022-11-29T10:22:05.963Z,28.12
2022-11-29T10:23:06.293Z,22.50
2022-11-29T10:24:06.516Z,22.50
2022-11-29T10:25:06.823Z,22.50
2022-11-29T10:26:07.074Z,22.50
2022-11-29T10:27:07.377Z,22.50
2022-11-29T10:28:07.663Z,22.50
2022-11-29T10:29:08.927Z,22.50
2022-11-29T10:30:08.135Z,22.50
2022-11-29T10:31:08.564Z,22.50
2022-11-29T10:32:10.457Z,22.50
2022-11-29T10:33:09.073Z,22.50
2022-11-29T10:34:09.268Z,22.50
2022-11-29T10:35:09.562Z,22.50
2022-11-29T10:36:09.798Z,22.50
2022-11-29T10:37:10.051Z,22.50
2022-11-29T10:39:14.567Z,22.50
2022-11-29T10:40:10.910Z,22.50
2022-11-29T10:41:11.230Z,22.50
2022-11-29T10:42:11.459Z,22.50
2022-11-29T10:43:11.798Z,22.50
2022-11-29T10:44:12.053Z,22.50
2022-11-29T10:45:12.392Z,22.50
2022-11-29T10:46:12.847Z,28.12
2022-11-29T10:47:12.918Z,28.12
2022-11-29T10:48:13.206Z,28.12
2022-11-29T10:49:13.567Z,28.12
2022-11-29T10:50:13.792Z,28.12
2022-11-29T10:51:14.093Z,28.12
2022-11-29T10:52:14.407Z,28.12
2022-11-29T10:53:15.598Z,28.12
2022-11-29T10:54:15.350Z,28.12
2022-11-29T10:55:15.463Z,33.75
2022-11-29T10:56:15.570Z,28.12
2022-11-29T10:57:15.883Z,33.75
2022-11-29T10:58:16.117Z,33.75
2022-11-29T10:59:16.469Z,33.75
2022-11-29T11:00:16.712Z,33.75
2022-11-29T11:01:17.370Z,39.38
2022-11-29T11:02:17.236Z,39.38
2022-11-29T11:03:17.556Z,39.38
2022-11-29T11:04:17.880Z,39.38
2022-11-29T11:05:18.151Z,39.38
2022-11-29T11:06:18.427Z,45.00
2022-11-29T11:07:18.781Z,45.00
2022-11-29T11:08:18.899Z,45.00
2022-11-29T11:09:19.265Z,45.00
2022-11-29T11:10:19.495Z,45.00
2022-11-29T11:11:19.826Z,45.00
2022-11-29T11:12:20.158Z,45.00
2022-11-29T11:13:20.425Z,45.00
2022-11-29T11:14:20.750Z,45.00
2022-11-29T11:15:21.092Z,45.00
2022-11-29T11:16:21.506Z,39.38
2022-11-29T11:17:21.742Z,39.38
2022-11-29T11:18:21.932Z,39.38
2022-11-29T11:19:23.276Z,39.38
2022-11-29T11:20:22.630Z,39.38
2022-11-29T11:21:22.992Z,39.38
2022-11-29T11:22:23.301Z,33.75
2022-11-29T11:23:23.494Z,33.75
2022-11-29T11:24:23.617Z,33.75
2022-11-29T11:25:24.025Z,33.75
2022-11-29T11:26:24.249Z,33.75
2022-11-29T11:27:24.447Z,33.75
2022-11-29T11:28:24.774Z,33.75
2022-11-29T11:29:25.055Z,33.75
2022-11-29T11:30:25.625Z,33.75
2022-11-29T11:31:25.744Z,33.75
2022-11-29T11:32:25.918Z,33.75
2022-11-29T11:33:26.357Z,33.75
2022-11-29T11:34:26.438Z,33.75
2022-11-29T11:35:26.679Z,28.12
2022-11-29T11:36:26.967Z,28.12
2022-11-29T11:37:27.262Z,28.12
2022-11-29T11:38:27.578Z,28.12
2022-11-29T11:39:27.854Z,22.50
2022-11-29T11:40:28.481Z,22.50
2022-11-29T11:41:28.363Z,22.50
2022-11-29T11:42:28.666Z,22.50
2022-11-29T11:43:29.124Z,22.50
2022-11-29T11:45:30.752Z,22.50
2022-11-29T11:46:30.005Z,22.50
2022-11-29T11:47:30.257Z,16.88
2022-11-29T11:48:30.516Z,16.88
2022-11-29T11:49:30.651Z,16.88
2022-11-29T11:50:31.034Z,16.88
2022-11-29T11:51:31.213Z,16.88
2022-11-29T11:52:34.742Z,16.88
2022-11-29T11:53:32.839Z,16.88
2022-11-29T11:54:32.081Z,16.88
2022-11-29T11:55:32.476Z,16.88
2022-11-29T11:56:32.527Z,16.88
2022-11-29T11:57:32.926Z,16.88
2022-11-29T11:58:33.121Z,16.88
2022-11-29T11:59:33.391Z,16.88
2022-11-29T12:01:01.875Z,16.88
2022-11-29T12:01:34.931Z,16.88
2022-11-29T12:02:34.447Z,16.88
2022-11-29T12:03:34.589Z,16.88
2022-11-29T12:04:34.881Z,16.88
2022-11-29T12:05:35.275Z,16.88
2022-11-29T12:06:35.542Z,16.88
2022-11-29T12:08:06.284Z,16.88
2022-11-29T12:08:36.992Z,22.50
2022-11-29T12:09:36.358Z,22.50
2022-11-29T12:10:36.523Z,22.50
2022-11-29T12:11:36.775Z,22.50
2022-11-29T12:12:37.088Z,22.50
2022-11-29T12:13:37.367Z,22.50
2022-11-29T12:14:38.093Z,16.88
2022-11-29T12:15:38.088Z,22.50
2022-11-29T12:16:38.213Z,22.50
2022-11-29T12:17:38.567Z,22.50
2022-11-29T12:18:38.759Z,16.88
2022-11-29T12:19:39.069Z,16.88
2022-11-29T12:20:39.334Z,22.50
2022-11-29T12:21:39.595Z,22.50
2022-11-29T12:22:42.656Z,22.50
2022-11-29T12:23:41.180Z,22.50
2022-11-29T12:24:40.460Z,22.50
2022-11-29T12:25:40.828Z,22.50
2022-11-29T12:26:58.252Z,22.50
2022-11-29T12:27:42.239Z,22.50
2022-11-29T12:28:41.512Z,22.50
2022-11-29T12:29:41.793Z,22.50
2022-11-29T12:30:42.123Z,16.88
2022-11-29T12:31:42.408Z,16.88
2022-11-29T12:32:42.668Z,16.88
2022-11-29T12:33:43.134Z,22.50
2022-11-29T12:34:43.606Z,16.88
2022-11-29T12:35:43.528Z,16.88
2022-11-29T12:36:43.793Z,16.88
2022-11-29T12:37:44.563Z,16.88
2022-11-29T12:38:44.427Z,16.88
2022-11-29T12:39:44.749Z,16.88
2022-11-29T12:40:45.019Z,16.88
2022-11-29T12:41:49.518Z,16.88
2022-11-29T12:42:46.585Z,16.88
2022-11-29T12:43:45.733Z,16.88
2022-11-29T12:44:46.459Z,16.88
2022-11-29T12:45:46.259Z,16.88
2022-11-29T12:46:46.627Z,16.88
2022-11-29T12:47:51.728Z,16.88
2022-11-29T12:48:48.082Z,16.88
2022-11-29T12:49:47.458Z,16.88
2022-11-29T12:50:47.696Z,16.88
2022-11-29T12:51:48.036Z,16.88
2022-11-29T12:52:48.238Z,16.88
2022-11-29T12:53:48.609Z,16.88
2022-11-29T12:54:48.870Z,11.25
2022-11-29T12:55:49.195Z,11.25
2022-11-29T12:56:49.522Z,11.25
2022-11-29T12:57:49.765Z,16.88
2022-11-29T12:58:50.206Z,11.25
2022-11-29T12:59:50.346Z,11.25
2022-11-29T13:00:50.638Z,11.25
2022-11-29T13:01:50.929Z,11.25
2022-11-29T13:02:51.266Z,11.25
2022-11-29T13:03:51.538Z,5.62
2022-11-29T13:04:56.507Z,11.25
2022-11-29T13:05:53.072Z,11.25
2022-11-29T13:06:52.387Z,11.25
2022-11-29T13:07:52.674Z,11.25
2022-11-29T13:08:52.986Z,11.25
2022-11-29T13:09:53.265Z,11.25
2022-11-29T13:10:53.636Z,5.62
2022-11-29T13:11:53.804Z,5.62
2022-11-29T13:12:54.072Z,5.62
2022-11-29T13:14:03.813Z,5.62
2022-11-29T13:14:55.769Z,11.25
2022-11-29T13:15:55.000Z,11.25
2022-11-29T13:16:55.748Z,11.25
2022-11-29T13:17:55.569Z,11.25
2022-11-29T13:18:55.732Z,11.25
2022-11-29T13:19:56.005Z,11.25
2022-11-29T13:20:56.294Z,11.25
2022-11-29T13:21:56.621Z,11.25
2022-11-29T13:22:56.904Z,11.25
2022-11-29T13:24:12.429Z,11.25
2022-11-29T13:24:58.447Z,11.25
2022-11-29T13:25:57.709Z,16.88
2022-11-29T13:26:58.163Z,16.88
2022-11-29T13:27:58.533Z,16.88
2022-11-29T13:28:58.613Z,16.88
2022-11-29T13:29:58.909Z,16.88
2022-11-29T13:30:59.472Z,16.88
2022-11-29T13:31:59.393Z,16.88
2022-11-29T13:32:59.643Z,16.88
2022-11-29T13:33:59.985Z,16.88
2022-11-29T13:35:00.284Z,16.88
2022-11-29T13:36:00.618Z,11.25
2022-11-29T13:37:00.811Z,16.88
2022-11-29T13:38:01.083Z,16.88
2022-11-29T13:39:02.295Z,11.25
2022-11-29T13:40:01.740Z,11.25
2022-11-29T13:41:01.962Z,11.25
2022-11-29T13:42:02.348Z,11.25
2022-11-29T13:43:02.485Z,11.25
2022-11-29T13:44:02.795Z,11.25
2022-11-29T13:45:03.101Z,11.25
2022-11-29T13:46:03.428Z,11.25
2022-11-29T13:47:03.660Z,11.25
2022-11-29T13:48:03.966Z,11.25
2022-11-29T13:49:04.260Z,11.25
2022-11-29T13:50:04.550Z,11.25
2022-11-29T13:51:04.885Z,11.25
2022-11-29T13:52:05.090Z,11.25
2022-11-29T13:53:05.332Z,11.25
2022-11-29T13:54:05.573Z,11.25
2022-11-29T13:55:05.864Z,11.25
2022-11-29T13:56:06.104Z,11.25
2022-11-29T13:57:06.803Z,11.25
2022-11-29T13:58:21.969Z,11.25
2022-11-29T13:59:07.961Z,11.25
2022-11-29T14:00:07.234Z,11.25
2022-11-29T14:01:07.499Z,11.25
2022-11-29T14:02:07.919Z,11.25
2022-11-29T14:03:08.129Z,11.25
2022-11-29T14:04:08.476Z,11.25
2022-11-29T14:05:08.609Z,11.25
2022-11-29T14:06:09.024Z,11.25
2022-11-29T14:07:09.107Z,11.25
2022-11-29T14:08:12.771Z,11.25
2022-11-29T14:09:19.012Z,11.25
2022-11-29T14:10:11.062Z,11.25
2022-11-29T14:11:10.343Z,11.25
2022-11-29T14:12:10.725Z,5.62
2022-11-29T14:13:11.001Z,11.25
2022-11-29T14:14:11.311Z,11.25
2022-11-29T14:15:11.571Z,11.25
2022-11-29T14:16:12.085Z,11.25
2022-11-29T14:17:12.183Z,5.62
2022-11-29T14:18:12.438Z,5.62
2022-11-29T14:19:12.697Z,5.62
2022-11-29T14:20:13.054Z,5.62
2022-11-29T14:21:13.299Z,5.62
2022-11-29T14:22:13.539Z,5.62
2022-11-29T14:23:13.804Z,5.62
2022-11-29T14:24:14.062Z,5.62
2022-11-29T14:25:35.293Z,5.62
2022-11-29T14:26:15.581Z,5.62
2022-11-29T14:27:14.900Z,5.62
2022-11-29T14:28:15.175Z,5.62
2022-11-29T14:29:15.427Z,5.62
2022-11-29T14:30:15.714Z,5.62
2022-11-29T14:31:16.082Z,5.62
2022-11-29T14:32:16.373Z,5.62
2022-11-29T14:33:16.630Z,5.62
2022-11-29T14:34:16.897Z,5.62
2022-11-29T14:35:17.140Z,5.62
2022-11-29T14:36:17.475Z,5.62